createdAt,value
2018-06-25T00:00:17.922Z,190.90
2018-06-25T00:02:46.464Z,164.00
2018-06-25T00:05:15.053Z,176.10
2018-06-25T00:07:43.552Z,180.40
2018-06-25T00:10:12.107Z,148.50
2018-06-25T00:12:40.638Z,177.03
2018-06-25T00:15:09.203Z,161.80
2018-06-25T00:17:37.741Z,159.00
2018-06-25T00:20:06.082Z,160.07
2018-06-25T00:22:34.601Z,167.20
2018-06-25T00:25:03.224Z,175.87
2018-06-25T00:27:31.880Z,175.63
2018-06-25T00:30:00.421Z,160.17
2018-06-25T00:32:28.979Z,178.80
2018-06-25T00:34:57.573Z,200.13
2018-06-25T00:37:26.151Z,164.20
2018-06-25T00:39:54.690Z,165.60
2018-06-25T00:42:22.932Z,184.23
2018-06-25T00:44:51.492Z,183.97
2018-06-25T00:47:20.055Z,165.30
2018-06-25T00:49:48.636Z,163.03
2018-06-25T00:52:17.180Z,179.63
2018-06-25T00:54:45.801Z,202.23
2018-06-25T00:57:14.308Z,160.73
2018-06-25T00:59:55.372Z,181.33
2018-06-25T01:02:24.312Z,186.17
2018-06-25T01:04:53.158Z,161.37
2018-06-25T01:07:21.875Z,183.73
2018-06-25T01:09:50.418Z,178.17
2018-06-25T01:12:18.990Z,179.33
2018-06-25T01:14:47.207Z,170.63
2018-06-25T01:17:15.778Z,200.40
2018-06-25T01:19:44.335Z,179.50
2018-06-25T01:22:12.840Z,196.40
2018-06-25T01:24:41.379Z,195.53
2018-06-25T01:27:10.756Z,190.27
2018-06-25T01:29:41.530Z,179.27
2018-06-25T01:32:10.138Z,179.77
2018-06-25T01:34:39.016Z,199.53
2018-06-25T01:37:07.735Z,197.57
2018-06-25T01:39:36.321Z,183.53
2018-06-25T01:42:04.900Z,201.93
2018-06-25T01:44:33.459Z,191.67
2018-06-25T01:47:02.015Z,174.27
2018-06-25T01:49:30.541Z,206.60
2018-06-25T01:51:59.117Z,180.67
2018-06-25T01:54:27.655Z,192.20
2018-06-25T01:56:56.194Z,198.03
2018-06-25T01:59:24.703Z,205.63
2018-06-25T02:01:53.338Z,206.43
2018-06-25T02:04:21.885Z,208.37
2018-06-25T02:06:50.425Z,244.33
2018-06-25T02:09:18.953Z,219.47
2018-06-25T02:11:47.449Z,229.50
2018-06-25T02:14:16.015Z,215.70
2018-06-25T02:16:44.558Z,218.30
2018-06-25T02:19:13.113Z,178.87
2018-06-25T02:21:41.651Z,218.83
2018-06-25T02:24:10.220Z,195.00
2018-06-25T02:26:38.733Z,193.77
2018-06-25T02:29:07.253Z,196.07
2018-06-25T02:31:35.793Z,210.50
2018-06-25T02:34:04.409Z,196.47
2018-06-25T02:36:32.709Z,206.97
2018-06-25T02:39:01.215Z,223.27
2018-06-25T02:41:30.514Z,192.90
2018-06-25T02:43:59.144Z,213.47
2018-06-25T02:46:27.693Z,171.43
2018-06-25T02:48:56.270Z,199.63
2018-06-25T02:51:24.797Z,185.33
2018-06-25T02:53:53.430Z,171.00
2018-06-25T02:56:22.009Z,174.20
2018-06-25T02:58:50.551Z,215.20
2018-06-25T03:01:19.134Z,153.07
2018-06-25T03:03:48.526Z,163.67
2018-06-25T03:06:17.298Z,158.37
2018-06-25T03:08:45.820Z,133.27
2018-06-25T03:11:14.472Z,142.70
2018-06-25T03:13:43.039Z,135.03
2018-06-25T03:16:11.592Z,138.47
2018-06-25T03:18:40.135Z,135.77
2018-06-25T03:21:09.030Z,145.90
2018-06-25T03:23:37.560Z,135.30
2018-06-25T03:26:06.112Z,135.67
2018-06-25T03:28:34.649Z,132.40
2018-06-25T03:31:03.279Z,118.43
2018-06-25T03:33:31.488Z,146.83
2018-06-25T03:36:00.020Z,135.03
2018-06-25T03:38:28.627Z,173.10
2018-06-25T03:40:57.221Z,152.50
2018-06-25T03:43:25.752Z,176.57
2018-06-25T03:45:54.324Z,180.37
2018-06-25T03:48:22.910Z,178.93
2018-06-25T03:50:51.477Z,164.17
2018-06-25T03:53:20.022Z,193.30
2018-06-25T03:55:48.607Z,184.97
2018-06-25T03:58:17.153Z,179.57
2018-06-25T04:00:45.741Z,176.70
2018-06-25T04:03:14.260Z,164.23
2018-06-25T04:05:43.103Z,164.20
2018-06-25T04:08:11.629Z,134.57
2018-06-25T04:10:40.141Z,133.07
2018-06-25T04:13:08.702Z,146.43
2018-06-25T04:15:37.237Z,163.77
2018-06-25T04:18:06.554Z,167.90
2018-06-25T04:20:35.112Z,145.77
2018-06-25T04:23:03.761Z,179.10
2018-06-25T04:25:32.291Z,198.80
2018-06-25T04:28:00.873Z,179.43
2018-06-25T04:30:29.611Z,212.90
2018-06-25T04:32:57.869Z,218.30
2018-06-25T04:35:26.398Z,222.03
2018-06-25T04:37:55.006Z,220.73
2018-06-25T04:40:23.621Z,222.13
2018-06-25T04:42:52.167Z,172.77
2018-06-25T04:45:20.685Z,180.27
2018-06-25T04:47:49.213Z,193.00
2018-06-25T04:50:17.810Z,208.63
2018-06-25T04:52:46.387Z,226.30
2018-06-25T04:55:14.953Z,225.73
2018-06-25T04:57:43.168Z,223.67
2018-06-25T05:00:11.733Z,290.17
2018-06-25T05:02:40.259Z,283.57
2018-06-25T05:05:08.838Z,308.03
2018-06-25T05:07:37.369Z,309.90
2018-06-25T05:10:05.940Z,302.50
2018-06-25T05:12:34.497Z,285.43
2018-06-25T05:15:03.046Z,283.17
2018-06-25T05:17:31.611Z,358.47
2018-06-25T05:20:00.141Z,329.60
2018-06-25T05:22:28.691Z,335.63
2018-06-25T05:24:57.205Z,325.47
2018-06-25T05:27:25.742Z,350.40
2018-06-25T05:29:54.241Z,297.53
2018-06-25T05:32:22.840Z,210.20
2018-06-25T05:34:51.349Z,236.97
2018-06-25T05:37:19.992Z,210.57
2018-06-25T05:39:48.719Z,261.57
2018-06-25T05:42:21.241Z,245.53
2018-06-25T05:44:50.801Z,271.07
2018-06-25T05:47:19.728Z,269.03
2018-06-25T05:49:48.486Z,276.77
2018-06-25T05:52:17.177Z,287.97
2018-06-25T05:54:45.747Z,312.60
2018-06-25T05:57:15.105Z,273.37
2018-06-25T05:59:43.888Z,260.07
2018-06-25T06:02:12.504Z,273.33
2018-06-25T06:04:41.137Z,303.80
2018-06-25T06:07:10.411Z,288.03
2018-06-25T06:09:39.169Z,299.43
2018-06-25T06:12:07.738Z,293.37
2018-06-25T06:14:36.291Z,285.33
2018-06-25T06:17:04.867Z,289.43
2018-06-25T06:19:33.485Z,301.83
2018-06-25T06:22:02.146Z,359.93
2018-06-25T06:24:31.134Z,362.27
2018-06-25T06:26:59.762Z,382.33
2018-06-25T06:29:28.417Z,335.07
2018-06-25T06:31:56.925Z,364.13
2018-06-25T06:34:25.492Z,364.47
2018-06-25T06:36:53.773Z,354.30
2018-06-25T06:39:22.342Z,353.90
2018-06-25T06:41:50.898Z,330.23
2018-06-25T06:44:19.596Z,374.67
2018-06-25T06:46:48.104Z,368.63
2018-06-25T06:49:16.653Z,349.80
2018-06-25T06:51:45.205Z,365.73
2018-06-25T06:54:13.762Z,408.73
2018-06-25T06:56:42.363Z,334.00
2018-06-25T06:59:10.950Z,342.33
2018-06-25T07:01:39.482Z,366.77
2018-06-25T07:04:08.069Z,287.73
2018-06-25T07:06:36.636Z,304.90
2018-06-25T07:09:08.600Z,271.73
2018-06-25T07:11:37.289Z,301.50
2018-06-25T07:14:06.647Z,315.57
2018-06-25T07:16:35.226Z,307.63
2018-06-25T07:19:04.048Z,317.10
2018-06-25T07:21:32.598Z,144.90
2018-06-25T07:24:01.139Z,255.43
2018-06-25T07:26:29.774Z,217.43
2018-06-25T07:28:58.361Z,177.83
2018-06-25T07:31:26.873Z,79.80
2018-06-25T07:33:55.404Z,55.17
2018-06-25T07:36:23.972Z,72.07
2018-06-25T07:38:52.622Z,71.80
2018-06-25T07:41:21.151Z,89.80
2018-06-25T07:43:49.689Z,61.07
2018-06-25T07:46:18.195Z,66.53
2018-06-25T07:48:46.764Z,31.60
2018-06-25T07:51:15.427Z,54.57
2018-06-25T07:53:43.939Z,36.00
2018-06-25T07:56:12.499Z,38.43
2018-06-25T07:58:41.062Z,34.30
2018-06-25T08:01:09.596Z,35.23
2018-06-25T08:03:38.219Z,32.73
2018-06-25T08:06:06.803Z,34.40
2018-06-25T08:08:35.327Z,34.13
2018-06-25T08:11:03.872Z,68.67
2018-06-25T08:13:32.399Z,42.23
2018-06-25T08:16:01.005Z,39.57
2018-06-25T08:18:29.534Z,36.63
2018-06-25T08:20:58.066Z,67.60
2018-06-25T08:23:26.631Z,182.30
2018-06-25T08:25:55.221Z,155.50
2018-06-25T08:28:23.789Z,214.57
2018-06-25T08:30:52.296Z,186.10
2018-06-25T08:33:20.886Z,238.10
2018-06-25T08:35:49.416Z,231.73
2018-06-25T08:38:17.953Z,218.63
2018-06-25T08:40:46.557Z,203.57
2018-06-25T08:43:15.178Z,225.80
2018-06-25T08:45:43.768Z,233.13
2018-06-25T08:48:12.324Z,214.33
2018-06-25T08:50:40.896Z,196.87
2018-06-25T08:53:09.481Z,182.00
2018-06-25T08:55:37.774Z,214.57
2018-06-25T08:58:06.354Z,186.93
2018-06-25T09:00:34.925Z,186.83
2018-06-25T09:03:03.215Z,58.30
2018-06-25T09:05:31.739Z,57.17
2018-06-25T09:08:00.367Z,117.77
2018-06-25T09:10:28.921Z,75.30
2018-06-25T09:12:57.505Z,95.07
2018-06-25T09:15:26.074Z,92.50
2018-06-25T09:17:54.635Z,103.67
2018-06-25T09:20:23.966Z,107.47
2018-06-25T09:22:52.529Z,114.90
2018-06-25T09:25:21.089Z,77.00
2018-06-25T09:27:50.262Z,85.83
2018-06-25T09:30:19.783Z,67.17
2018-06-25T09:32:48.050Z,87.67
2018-06-25T09:35:16.654Z,93.43
2018-06-25T09:37:45.246Z,191.03
2018-06-25T09:40:13.824Z,200.87
2018-06-25T09:42:42.428Z,263.77
2018-06-25T09:45:12.026Z,252.07
2018-06-25T09:47:40.605Z,156.47
2018-06-25T09:50:08.801Z,201.33
2018-06-25T09:52:37.438Z,149.30
2018-06-25T09:55:06.186Z,209.37
2018-06-25T09:57:34.832Z,339.73
2018-06-25T10:00:03.434Z,290.97
2018-06-25T10:02:41.847Z,276.57
2018-06-25T10:05:16.510Z,341.60
2018-06-25T10:07:45.218Z,415.03
2018-06-25T10:10:13.768Z,328.20
2018-06-25T10:12:42.377Z,514.47
2018-06-25T10:15:10.893Z,527.13
2018-06-25T10:17:39.173Z,522.60
2018-06-25T10:20:08.009Z,163.73
2018-06-25T10:22:36.533Z,294.73
2018-06-25T10:25:05.381Z,322.23
2018-06-25T10:27:37.745Z,157.70
2018-06-25T10:30:15.453Z,149.73
2018-06-25T10:32:43.788Z,250.27
2018-06-25T10:35:12.324Z,224.50
2018-06-25T10:37:40.886Z,393.33
2018-06-25T10:40:09.445Z,237.67
2018-06-25T10:42:38.046Z,175.07
2018-06-25T10:45:06.637Z,49.27
2018-06-25T10:47:35.194Z,36.07
2018-06-25T10:50:03.475Z,19.83
2018-06-25T10:52:32.013Z,13.60
2018-06-25T10:55:00.633Z,29.50
2018-06-25T10:57:28.877Z,29.90
2018-06-25T10:59:57.608Z,19.57
2018-06-25T11:02:26.128Z,21.23
2018-06-25T11:04:54.696Z,21.50
2018-06-25T11:07:23.268Z,19.53
2018-06-25T11:09:51.889Z,20.77
2018-06-25T11:12:20.497Z,20.00
2018-06-25T11:14:49.038Z,22.33
2018-06-25T11:17:24.224Z,18.73
2018-06-25T11:19:52.810Z,16.83
2018-06-25T11:22:21.463Z,14.37
2018-06-25T11:24:50.045Z,16.07
2018-06-25T11:27:18.721Z,18.33
2018-06-25T11:29:47.211Z,22.40
2018-06-25T11:32:15.771Z,25.80
2018-06-25T11:34:44.505Z,33.03
2018-06-25T11:37:13.272Z,21.63
2018-06-25T11:39:41.969Z,17.10
2018-06-25T11:42:10.703Z,18.10
2018-06-25T11:44:39.254Z,19.00
2018-06-25T11:47:07.775Z,18.33
2018-06-25T11:49:36.335Z,17.87
2018-06-25T11:52:05.163Z,17.03
2018-06-25T11:54:33.694Z,15.77
2018-06-25T11:57:02.255Z,16.70
2018-06-25T11:59:30.849Z,21.13
2018-06-25T12:02:01.587Z,20.77
2018-06-25T12:04:30.713Z,20.50
2018-06-25T12:06:59.390Z,23.73
2018-06-25T12:09:27.923Z,21.50
2018-06-25T12:11:56.741Z,23.33
2018-06-25T12:14:25.257Z,33.27
2018-06-25T12:16:53.810Z,29.70
2018-06-25T12:19:22.357Z,33.87
2018-06-25T12:21:51.008Z,32.30
2018-06-25T12:24:23.114Z,30.53
2018-06-25T12:26:51.669Z,33.30
2018-06-25T12:29:20.322Z,36.17
2018-06-25T12:31:48.882Z,34.87
2018-06-25T12:34:17.405Z,37.30
2018-06-25T12:36:45.978Z,48.33
2018-06-25T12:39:14.645Z,27.57
2018-06-25T12:41:44.340Z,43.80
2018-06-25T12:44:14.319Z,66.93
2018-06-25T12:46:43.433Z,55.77
2018-06-25T12:49:11.930Z,61.50
2018-06-25T12:51:41.834Z,70.23
2018-06-25T12:54:11.504Z,129.40
2018-06-25T12:56:40.803Z,189.67
2018-06-25T12:59:11.366Z,62.93
2018-06-25T13:01:40.727Z,99.20
2018-06-25T13:04:10.923Z,129.27
2018-06-25T13:06:40.683Z,218.90
2018-06-25T13:09:09.500Z,91.60
2018-06-25T13:11:38.012Z,179.63
2018-06-25T13:14:06.631Z,258.73
2018-06-25T13:16:35.506Z,258.10
2018-06-25T13:19:04.346Z,283.60
2018-06-25T13:21:32.865Z,358.20
2018-06-25T13:24:01.418Z,317.63
2018-06-25T13:26:30.198Z,324.70
2018-06-25T13:28:58.771Z,335.07
2018-06-25T13:31:27.511Z,336.87
2018-06-25T13:33:56.894Z,333.57
2018-06-25T13:36:25.478Z,293.60
2018-06-25T13:38:54.026Z,318.73
2018-06-25T13:41:22.713Z,331.97
2018-06-25T13:43:51.307Z,336.70
2018-06-25T13:46:19.548Z,185.87
2018-06-25T13:48:48.111Z,197.77
2018-06-25T13:51:16.686Z,253.37
2018-06-25T13:53:45.274Z,305.37
2018-06-25T13:56:13.828Z,311.80
2018-06-25T13:58:42.397Z,320.07
2018-06-25T14:01:10.999Z,323.30
2018-06-25T14:03:39.636Z,327.17
2018-06-25T14:06:08.220Z,320.13
2018-06-25T14:08:36.786Z,291.77
2018-06-25T14:11:05.327Z,346.67
2018-06-25T14:13:33.615Z,280.43
2018-06-25T14:16:02.197Z,349.57
2018-06-25T14:18:30.781Z,347.03
2018-06-25T14:20:59.375Z,341.70
2018-06-25T14:23:28.022Z,335.70
2018-06-25T14:26:02.005Z,324.93
2018-06-25T14:28:32.574Z,353.73
2018-06-25T14:31:06.784Z,333.37
2018-06-25T14:33:48.493Z,333.73
2018-06-25T14:36:17.025Z,350.17
2018-06-25T14:38:45.597Z,325.17
2018-06-25T14:41:14.249Z,316.10
2018-06-25T14:43:42.866Z,356.73
2018-06-25T14:46:12.061Z,315.00
2018-06-25T14:48:40.669Z,243.40
2018-06-25T14:51:09.281Z,355.37
2018-06-25T14:53:37.841Z,294.87
2018-06-25T14:56:06.422Z,346.20
2018-06-25T14:58:35.006Z,368.50
2018-06-25T15:01:04.499Z,416.13
2018-06-25T15:03:33.167Z,410.97
2018-06-25T15:06:01.807Z,420.87
2018-06-25T15:08:30.418Z,398.93
2018-06-25T15:10:59.518Z,401.33
2018-06-25T15:13:28.053Z,429.43
2018-06-25T15:15:56.681Z,439.37
2018-06-25T15:18:24.952Z,420.40
2018-06-25T15:20:53.494Z,414.00
2018-06-25T15:23:22.035Z,419.73
2018-06-25T15:25:50.632Z,412.20
2018-06-25T15:28:19.231Z,428.80
2018-06-25T15:30:47.812Z,338.43
2018-06-25T15:33:16.475Z,320.30
2018-06-25T15:35:45.104Z,336.30
2018-06-25T15:38:13.660Z,329.10
2018-06-25T15:40:42.234Z,223.63
2018-06-25T15:43:10.812Z,127.63
2018-06-25T15:45:39.320Z,127.10
2018-06-25T15:48:07.921Z,117.23
2018-06-25T15:50:36.473Z,95.10
2018-06-25T15:53:04.953Z,127.93
2018-06-25T15:55:33.442Z,104.20
2018-06-25T15:58:01.992Z,104.27
2018-06-25T16:00:30.483Z,111.67
2018-06-25T16:02:58.926Z,87.73
2018-06-25T16:05:27.419Z,73.13
2018-06-25T16:07:56.146Z,91.30
2018-06-25T16:10:24.640Z,86.27
2018-06-25T16:12:55.080Z,79.63
2018-06-25T16:15:23.565Z,77.73
2018-06-25T16:17:52.097Z,82.47
2018-06-25T16:20:20.911Z,82.33
2018-06-25T16:22:49.419Z,78.80
2018-06-25T16:25:17.904Z,75.10
2018-06-25T16:27:46.416Z,76.47
2018-06-25T16:30:14.929Z,83.07
2018-06-25T16:32:43.423Z,75.90
2018-06-25T16:35:11.936Z,80.37
2018-06-25T16:37:40.407Z,154.23
2018-06-25T16:40:08.994Z,132.73
2018-06-25T16:42:37.484Z,142.23
2018-06-25T16:45:16.956Z,147.67
2018-06-25T16:47:50.113Z,168.00
2018-06-25T16:50:24.076Z,139.67
2018-06-25T16:53:05.301Z,153.57
2018-06-25T16:55:42.153Z,142.90
2018-06-25T16:58:24.301Z,142.50
2018-06-25T17:01:10.512Z,136.83
2018-06-25T17:03:48.979Z,127.33
2018-06-25T17:06:18.809Z,122.67
2018-06-25T17:08:48.505Z,112.77
2018-06-25T17:11:17.073Z,109.90
2018-06-25T17:13:45.790Z,105.47
2018-06-25T17:16:14.639Z,113.43
2018-06-25T17:18:43.812Z,101.37
2018-06-25T17:21:11.989Z,101.90
2018-06-25T17:23:44.253Z,106.90
2018-06-25T17:26:15.933Z,107.60
2018-06-25T17:28:46.865Z,106.23
2018-06-25T17:31:15.436Z,127.43
2018-06-25T17:33:43.935Z,120.20
2018-06-25T17:36:12.431Z,114.03
2018-06-25T17:38:40.994Z,126.00
2018-06-25T17:41:09.515Z,115.50
2018-06-25T17:43:38.035Z,134.03
2018-06-25T17:46:07.011Z,123.43
2018-06-25T17:48:35.746Z,140.07
2018-06-25T17:51:04.953Z,145.07
2018-06-25T17:53:33.149Z,111.30
2018-06-25T17:56:01.653Z,105.93
2018-06-25T17:58:30.275Z,105.30
2018-06-25T18:00:59.103Z,111.23
2018-06-25T18:03:28.486Z,101.37
2018-06-25T18:05:57.383Z,105.40
2018-06-25T18:08:25.582Z,118.97
2018-06-25T18:10:54.116Z,95.47
2018-06-25T18:13:22.665Z,102.93
2018-06-25T18:15:51.146Z,89.30
2018-06-25T18:18:19.657Z,82.63
2018-06-25T18:20:48.272Z,99.43
2018-06-25T18:23:16.765Z,92.10
2018-06-25T18:25:45.243Z,89.97
2018-06-25T18:28:13.749Z,86.73
2018-06-25T18:30:43.132Z,88.53
2018-06-25T18:33:11.759Z,129.20
2018-06-25T18:35:44.680Z,122.70
2018-06-25T18:38:20.778Z,127.87
2018-06-25T18:41:01.403Z,139.70
2018-06-25T18:43:42.270Z,124.67
2018-06-25T18:46:16.968Z,119.77
2018-06-25T18:48:49.931Z,130.57
2018-06-25T18:51:23.493Z,142.77
2018-06-25T18:53:57.526Z,130.83
2018-06-25T18:56:30.759Z,127.23
2018-06-25T18:59:05.410Z,115.77
2018-06-25T19:01:39.562Z,103.07
2018-06-25T19:04:12.494Z,80.23
2018-06-25T19:06:45.691Z,85.60
2018-06-25T19:09:17.537Z,93.83
2018-06-25T19:11:56.178Z,113.37
2018-06-25T19:14:30.425Z,105.93
2018-06-25T19:17:03.665Z,111.03
2018-06-25T19:19:37.040Z,103.37
2018-06-25T19:22:11.147Z,76.87
2018-06-25T19:24:44.145Z,82.57
2018-06-25T19:27:16.815Z,81.13
2018-06-25T19:29:50.705Z,78.43
2018-06-25T19:32:23.650Z,84.40
2018-06-25T19:34:57.216Z,77.97
2018-06-25T19:37:38.128Z,74.67
2018-06-25T19:40:15.152Z,80.03
2018-06-25T19:42:46.293Z,75.17
2018-06-25T19:45:19.430Z,78.63
2018-06-25T19:47:55.897Z,76.40
2018-06-25T19:50:27.704Z,78.73
2018-06-25T19:53:08.104Z,79.80
2018-06-25T19:55:42.292Z,80.03
2018-06-25T19:58:15.637Z,75.77
2018-06-25T20:00:48.943Z,77.53
2018-06-25T20:03:21.751Z,78.07
2018-06-25T20:05:54.446Z,81.67
2018-06-25T20:08:27.208Z,80.43
2018-06-25T20:11:08.586Z,82.27
2018-06-25T20:13:44.649Z,74.10
2018-06-25T20:16:16.712Z,77.67
2018-06-25T20:18:49.653Z,71.77
2018-06-25T20:21:19.593Z,73.67
2018-06-25T20:23:51.658Z,71.83
2018-06-25T20:26:24.081Z,72.90
2018-06-25T20:29:00.745Z,77.27
2018-06-25T20:31:34.488Z,77.80
2018-06-25T20:34:10.579Z,75.30
2018-06-25T20:36:42.352Z,72.27
2018-06-25T20:39:16.952Z,66.90
2018-06-25T20:41:50.273Z,66.90
2018-06-25T20:44:25.239Z,66.50
2018-06-25T20:47:05.248Z,72.57
2018-06-25T20:49:38.927Z,68.20
2018-06-25T20:52:10.974Z,61.93
2018-06-25T20:54:45.455Z,59.50
2018-06-25T20:57:14.025Z,62.13
2018-06-25T20:59:42.699Z,54.27
2018-06-25T21:02:11.216Z,73.03
2018-06-25T21:04:39.749Z,80.73
2018-06-25T21:07:09.895Z,71.30
2018-06-25T21:09:38.578Z,73.20
2018-06-25T21:12:07.107Z,70.73
2018-06-25T21:14:35.680Z,72.30
2018-06-25T21:17:04.302Z,57.90
2018-06-25T21:19:32.860Z,50.13
2018-06-25T21:22:01.462Z,56.57
2018-06-25T21:24:29.975Z,55.87
2018-06-25T21:26:58.474Z,52.90
2018-06-25T21:29:26.967Z,51.00
2018-06-25T21:31:55.513Z,49.87
2018-06-25T21:34:24.044Z,54.63
2018-06-25T21:36:52.798Z,47.87
2018-06-25T21:39:21.483Z,51.53
2018-06-25T21:41:50.655Z,59.57
2018-06-25T21:44:19.341Z,56.30
2018-06-25T21:46:47.846Z,81.10
2018-06-25T21:49:16.413Z,61.03
2018-06-25T21:51:44.869Z,72.90
2018-06-25T21:54:13.363Z,59.87
2018-06-25T21:56:42.375Z,63.07
2018-06-25T21:59:12.449Z,60.47
2018-06-25T22:01:41.012Z,57.40
2018-06-25T22:04:10.967Z,62.00
2018-06-25T22:06:39.421Z,64.53
2018-06-25T22:09:09.616Z,60.83
2018-06-25T22:11:39.705Z,54.53
2018-06-25T22:14:09.209Z,57.57
2018-06-25T22:16:37.735Z,62.20
2018-06-25T22:19:06.354Z,57.90
2018-06-25T22:21:35.318Z,52.53
2018-06-25T22:24:04.898Z,60.03
2018-06-25T22:26:33.656Z,55.13
2018-06-25T22:29:02.388Z,55.93
2018-06-25T22:31:31.184Z,54.83
2018-06-25T22:33:59.684Z,57.97
2018-06-25T22:36:28.758Z,53.07
2018-06-25T22:38:57.598Z,54.53
2018-06-25T22:41:26.799Z,49.37
2018-06-25T22:44:05.899Z,51.30
2018-06-25T22:46:35.255Z,52.77
2018-06-25T22:49:03.772Z,51.73
2018-06-25T22:51:33.738Z,53.53
2018-06-25T22:54:02.235Z,53.63
2018-06-25T22:56:30.734Z,51.57
2018-06-25T22:58:59.211Z,49.70
2018-06-25T23:01:28.152Z,49.00
2018-06-25T23:03:56.727Z,49.23
2018-06-25T23:06:25.300Z,49.03
2018-06-25T23:08:53.772Z,49.97
2018-06-25T23:11:22.359Z,43.10
2018-06-25T23:13:50.839Z,47.50
2018-06-25T23:16:19.283Z,47.10
2018-06-25T23:18:47.780Z,47.43
2018-06-25T23:21:16.263Z,49.10
2018-06-25T23:23:44.861Z,50.63
2018-06-25T23:26:13.315Z,47.77
2018-06-25T23:28:41.834Z,49.00
2018-06-25T23:31:10.306Z,47.87
2018-06-25T23:33:38.928Z,48.90
2018-06-25T23:36:07.512Z,48.07
2018-06-25T23:38:36.036Z,46.20
2018-06-25T23:41:04.540Z,48.93
2018-06-25T23:43:33.035Z,48.10
2018-06-25T23:46:01.527Z,53.73
2018-06-25T23:48:30.072Z,51.43
2018-06-25T23:50:58.611Z,49.97
2018-06-25T23:53:27.074Z,49.87
2018-06-25T23:56:02.236Z,51.30
2018-06-25T23:58:30.709Z,53.60
